createdAt,value
2018-04-02T00:01:35.157Z,58.54
2018-04-02T00:04:01.410Z,58.64
2018-04-02T00:06:27.670Z,58.54
2018-04-02T00:08:53.937Z,58.52
2018-04-02T00:11:20.217Z,58.55
2018-04-02T00:13:46.524Z,58.31
2018-04-02T00:16:12.782Z,58.55
2018-04-02T00:18:39.101Z,58.52
2018-04-02T00:21:05.344Z,58.83
2018-04-02T00:23:31.604Z,58.63
2018-04-02T00:25:57.937Z,58.46
2018-04-02T00:28:24.197Z,58.34
2018-04-02T00:30:50.448Z,58.38
2018-04-02T00:33:16.686Z,58.61
2018-04-02T00:35:42.993Z,58.73
2018-04-02T00:38:09.238Z,58.65
2018-04-02T00:40:35.509Z,58.55
2018-04-02T00:43:01.821Z,58.40
2018-04-02T00:45:28.088Z,58.19
2018-04-02T00:47:54.329Z,58.03
2018-04-02T00:50:20.593Z,58.18
2018-04-02T00:52:46.857Z,58.18
2018-04-02T00:55:13.202Z,57.96
2018-04-02T00:57:39.497Z,58.04
2018-04-02T01:00:05.788Z,58.18
2018-04-02T01:02:32.076Z,58.23
2018-04-02T01:04:58.377Z,58.22
2018-04-02T01:07:24.637Z,58.05
2018-04-02T01:09:50.863Z,58.38
2018-04-02T01:12:17.129Z,58.57
2018-04-02T01:14:43.375Z,58.54
2018-04-02T01:17:09.635Z,58.38
2018-04-02T01:19:35.896Z,58.20
2018-04-02T01:22:02.134Z,58.15
2018-04-02T01:24:28.400Z,58.19
2018-04-02T01:26:54.633Z,58.39
2018-04-02T01:29:20.923Z,58.45
2018-04-02T01:31:47.157Z,58.75
2018-04-02T01:34:13.514Z,58.92
2018-04-02T01:36:39.740Z,58.73
2018-04-02T01:39:05.991Z,58.82
2018-04-02T01:41:32.246Z,58.76
2018-04-02T01:43:58.484Z,58.97
2018-04-02T01:46:24.745Z,59.18
2018-04-02T01:48:51.177Z,59.24
2018-04-02T01:51:17.437Z,58.58
2018-04-02T01:53:43.727Z,58.16
2018-04-02T01:56:09.981Z,58.26
2018-04-02T01:58:36.221Z,58.22
2018-04-02T02:01:02.486Z,58.22
2018-04-02T02:03:28.756Z,58.06
2018-04-02T02:05:55.037Z,57.71
2018-04-02T02:08:21.299Z,57.49
2018-04-02T02:10:47.539Z,57.30
2018-04-02T02:13:13.879Z,57.41
2018-04-02T02:15:40.125Z,57.06
2018-04-02T02:18:06.398Z,56.98
2018-04-02T02:20:32.674Z,56.95
2018-04-02T02:22:58.952Z,56.99
2018-04-02T02:25:25.220Z,57.04
2018-04-02T02:27:51.451Z,57.40
2018-04-02T02:30:17.724Z,58.11
2018-04-02T02:32:44.003Z,58.77
2018-04-02T02:35:10.297Z,59.21
2018-04-02T02:37:36.533Z,59.12
2018-04-02T02:40:02.829Z,59.16
2018-04-02T02:42:29.105Z,59.32
2018-04-02T02:44:55.407Z,59.54
2018-04-02T02:47:21.714Z,59.60
2018-04-02T02:49:47.948Z,59.84
2018-04-02T02:52:14.226Z,59.96
2018-04-02T02:54:40.496Z,60.04
2018-04-02T02:57:06.762Z,60.54
2018-04-02T02:59:32.997Z,61.29
2018-04-02T03:01:59.293Z,61.83
2018-04-02T03:04:25.547Z,62.21
2018-04-02T03:06:51.808Z,63.33
2018-04-02T03:09:18.093Z,63.29
2018-04-02T03:11:44.342Z,63.32
2018-04-02T03:14:10.654Z,63.45
2018-04-02T03:16:36.885Z,63.86
2018-04-02T03:19:03.162Z,64.17
2018-04-02T03:21:29.390Z,64.26
2018-04-02T03:23:55.665Z,63.91
2018-04-02T03:26:21.901Z,64.02
2018-04-02T03:28:48.137Z,64.25
2018-04-02T03:31:14.411Z,64.61
2018-04-02T03:33:40.649Z,64.76
2018-04-02T03:36:06.923Z,65.01
2018-04-02T03:38:33.160Z,65.40
2018-04-02T03:40:59.436Z,65.55
2018-04-02T03:43:25.677Z,65.76
2018-04-02T03:45:51.953Z,66.08
2018-04-02T03:48:18.204Z,65.72
2018-04-02T03:50:44.453Z,65.70
2018-04-02T03:53:10.751Z,65.64
2018-04-02T03:55:37.025Z,66.19
2018-04-02T03:58:03.281Z,66.35
2018-04-02T04:00:29.522Z,66.55
2018-04-02T04:02:55.805Z,66.72
2018-04-02T04:05:22.056Z,66.60
2018-04-02T04:07:48.360Z,66.31
2018-04-02T04:10:14.615Z,66.70
2018-04-02T04:12:40.905Z,66.46
2018-04-02T04:15:07.181Z,66.54
2018-04-02T04:17:33.451Z,66.64
2018-04-02T04:19:59.821Z,66.68
2018-04-02T04:22:26.073Z,66.78
2018-04-02T04:24:52.351Z,66.68
2018-04-02T04:27:18.646Z,66.85
2018-04-02T04:29:44.947Z,66.74
2018-04-02T04:32:11.193Z,66.55
2018-04-02T04:34:37.458Z,66.60
2018-04-02T04:37:03.763Z,66.77
2018-04-02T04:39:30.010Z,66.98
2018-04-02T04:41:56.292Z,66.96
2018-04-02T04:44:22.544Z,67.00
2018-04-02T04:46:48.824Z,67.01
2018-04-02T04:49:15.098Z,66.95
2018-04-02T04:51:41.388Z,66.88
2018-04-02T04:54:07.993Z,66.86
2018-04-02T04:56:34.253Z,66.81
2018-04-02T04:59:00.525Z,66.70
2018-04-02T05:01:26.789Z,66.49
2018-04-02T05:03:53.117Z,66.48
2018-04-02T05:06:19.434Z,66.06
2018-04-02T05:08:45.714Z,66.26
2018-04-02T05:11:11.957Z,66.32
2018-04-02T05:13:38.240Z,66.45
2018-04-02T05:16:04.521Z,66.11
2018-04-02T05:18:30.766Z,65.81
2018-04-02T05:20:57.070Z,65.56
2018-04-02T05:23:23.376Z,65.16
2018-04-02T05:25:49.654Z,64.54
2018-04-02T05:28:15.902Z,64.35
2018-04-02T05:30:42.170Z,63.93
2018-04-02T05:33:08.429Z,63.34
2018-04-02T05:35:34.714Z,62.85
2018-04-02T05:38:00.952Z,63.08
2018-04-02T05:40:27.189Z,62.43
2018-04-02T05:42:53.456Z,61.71
2018-04-02T05:45:19.710Z,61.40
2018-04-02T05:47:45.996Z,61.40
2018-04-02T05:50:12.234Z,61.00
2018-04-02T05:52:38.496Z,60.88
2018-04-02T05:55:04.735Z,61.16
2018-04-02T05:57:30.992Z,60.81
2018-04-02T05:59:57.257Z,60.73
2018-04-02T06:02:23.528Z,60.69
2018-04-02T06:04:49.825Z,61.00
2018-04-02T06:07:16.092Z,60.55
2018-04-02T06:09:42.372Z,60.19
2018-04-02T06:12:08.637Z,60.02
2018-04-02T06:14:34.902Z,60.36
2018-04-02T06:17:01.133Z,60.20
2018-04-02T06:19:27.386Z,59.76
2018-04-02T06:21:53.677Z,60.17
2018-04-02T06:24:19.917Z,60.36
2018-04-02T06:26:46.220Z,59.96
2018-04-02T06:29:12.465Z,60.02
2018-04-02T06:31:38.739Z,59.94
2018-04-02T06:34:05.021Z,59.61
2018-04-02T06:36:31.281Z,59.07
2018-04-02T06:38:57.546Z,58.83
2018-04-02T06:41:23.772Z,58.24
2018-04-02T06:43:50.041Z,57.78
2018-04-02T06:46:16.285Z,57.02
2018-04-02T06:48:42.557Z,57.52
2018-04-02T06:51:08.814Z,57.02
2018-04-02T06:53:35.092Z,56.27
2018-04-02T06:56:01.329Z,56.23
2018-04-02T06:58:27.614Z,55.76
2018-04-02T07:00:53.882Z,55.91
2018-04-02T07:03:20.144Z,55.82
2018-04-02T07:05:46.423Z,55.72
2018-04-02T07:08:12.702Z,55.57
2018-04-02T07:10:38.973Z,55.37
2018-04-02T07:13:05.220Z,55.11
2018-04-02T07:15:31.501Z,54.86
2018-04-02T07:17:57.769Z,54.49
2018-04-02T07:20:24.049Z,53.94
2018-04-02T07:22:50.416Z,53.66
2018-04-02T07:25:16.668Z,53.54
2018-04-02T07:27:42.975Z,53.21
2018-04-02T07:30:09.225Z,52.88
2018-04-02T07:32:35.525Z,52.14
2018-04-02T07:35:01.768Z,52.38
2018-04-02T07:37:28.041Z,52.15
2018-04-02T07:39:54.374Z,51.86
2018-04-02T07:42:20.677Z,50.88
2018-04-02T07:44:46.937Z,50.83
2018-04-02T07:47:13.225Z,50.96
2018-04-02T07:49:39.540Z,50.49
2018-04-02T07:52:05.776Z,49.60
2018-04-02T07:54:32.567Z,49.26
2018-04-02T07:56:59.135Z,48.73
2018-04-02T07:59:25.698Z,47.66
2018-04-02T08:01:53.378Z,46.83
2018-04-02T08:04:19.888Z,45.61
2018-04-02T08:06:46.136Z,44.02
2018-04-02T08:09:12.789Z,42.00
2018-04-02T08:11:39.263Z,41.09
2018-04-02T08:14:05.665Z,38.93
2018-04-02T08:16:31.956Z,37.79
2018-04-02T08:18:58.200Z,35.69
2018-04-02T08:21:24.548Z,34.34
2018-04-02T08:23:50.814Z,32.61
2018-04-02T08:26:17.405Z,33.56
2018-04-02T08:28:43.800Z,31.76
2018-04-02T08:31:10.297Z,30.45
2018-04-02T08:33:36.640Z,30.57
2018-04-02T08:36:02.933Z,32.57
2018-04-02T08:38:29.347Z,31.72
2018-04-02T08:40:55.786Z,31.00
2018-04-02T08:43:22.146Z,31.91
2018-04-02T08:45:48.575Z,32.75
2018-04-02T08:48:14.894Z,30.26
2018-04-02T08:50:41.423Z,31.23
2018-04-02T08:53:07.771Z,32.41
2018-04-02T08:55:34.261Z,33.46
2018-04-02T08:58:00.673Z,34.74
2018-04-02T09:00:27.716Z,34.58
2018-04-02T09:02:54.018Z,35.76
2018-04-02T09:05:20.524Z,36.54
2018-04-02T09:07:46.827Z,34.81
2018-04-02T09:10:13.166Z,31.16
2018-04-02T09:12:39.458Z,29.25
2018-04-02T09:15:05.757Z,28.12
2018-04-02T09:17:32.020Z,27.08
2018-04-02T09:19:58.414Z,26.76
2018-04-02T09:22:24.737Z,28.31
2018-04-02T09:24:51.030Z,27.41
2018-04-02T09:27:17.401Z,28.03
2018-04-02T09:29:43.692Z,27.26
2018-04-02T09:32:09.974Z,28.38
2018-04-02T09:34:36.288Z,28.05
2018-04-02T09:37:02.579Z,27.48
2018-04-02T09:39:28.869Z,28.28
2018-04-02T09:41:55.120Z,29.34
2018-04-02T09:44:21.403Z,29.23
2018-04-02T09:46:47.653Z,29.22
2018-04-02T09:49:14.045Z,30.63
2018-04-02T09:51:40.301Z,31.06
2018-04-02T09:54:06.647Z,28.08
2018-04-02T09:56:32.916Z,27.53
2018-04-02T09:58:59.222Z,26.58
2018-04-02T10:01:28.540Z,27.62
2018-04-02T10:03:54.801Z,29.58
2018-04-02T10:06:21.081Z,29.80
2018-04-02T10:08:47.324Z,28.23
2018-04-02T10:11:13.745Z,26.38
2018-04-02T10:13:39.988Z,24.71
2018-04-02T10:16:06.253Z,25.56
2018-04-02T10:18:32.529Z,25.28
2018-04-02T10:20:58.774Z,25.49
2018-04-02T10:23:25.045Z,25.27
2018-04-02T10:25:51.293Z,25.99
2018-04-02T10:28:17.663Z,24.81
2018-04-02T10:30:43.904Z,23.60
2018-04-02T10:33:10.196Z,22.27
2018-04-02T10:35:36.486Z,20.92
2018-04-02T10:38:02.764Z,20.88
2018-04-02T10:40:29.046Z,20.24
2018-04-02T10:42:55.326Z,19.46
2018-04-02T10:45:21.651Z,18.40
2018-04-02T10:47:47.916Z,20.95
2018-04-02T10:50:14.197Z,21.68
2018-04-02T10:52:40.507Z,23.77
2018-04-02T10:55:06.819Z,25.55
2018-04-02T10:57:33.065Z,27.13
2018-04-02T10:59:59.312Z,26.53
2018-04-02T11:02:25.594Z,25.68
2018-04-02T11:04:51.846Z,25.17
2018-04-02T11:07:18.129Z,26.06
2018-04-02T11:09:44.374Z,26.82
2018-04-02T11:12:10.642Z,27.32
2018-04-02T11:14:36.912Z,26.57
2018-04-02T11:17:03.251Z,26.46
2018-04-02T11:19:29.521Z,27.49
2018-04-02T11:21:55.793Z,26.79
2018-04-02T11:24:22.081Z,25.12
2018-04-02T11:26:48.417Z,22.25
2018-04-02T11:29:14.710Z,21.70
2018-04-02T11:31:40.957Z,20.72
2018-04-02T11:34:07.250Z,18.44
2018-04-02T11:36:33.547Z,17.30
2018-04-02T11:38:59.869Z,17.11
2018-04-02T11:41:26.116Z,17.80
2018-04-02T11:43:52.380Z,18.09
2018-04-02T11:46:18.698Z,16.94
2018-04-02T11:48:45.017Z,16.71
2018-04-02T11:51:11.346Z,17.94
2018-04-02T11:53:37.622Z,19.66
2018-04-02T11:56:03.929Z,19.29
2018-04-02T11:58:30.180Z,18.37
2018-04-02T12:00:56.527Z,16.64
2018-04-02T12:03:22.784Z,16.06
2018-04-02T12:05:49.041Z,14.74
2018-04-02T12:08:15.326Z,14.65
2018-04-02T12:10:41.621Z,15.65
2018-04-02T12:13:08.082Z,16.17
2018-04-02T12:15:34.350Z,17.99
2018-04-02T12:18:00.785Z,18.41
2018-04-02T12:20:27.053Z,19.65
2018-04-02T12:22:53.372Z,20.82
2018-04-02T12:25:19.834Z,22.27
2018-04-02T12:27:46.125Z,24.75
2018-04-02T12:30:12.463Z,26.01
2018-04-02T12:32:38.824Z,26.49
2018-04-02T12:35:05.466Z,24.41
2018-04-02T12:37:31.749Z,21.09
2018-04-02T12:39:58.148Z,18.06
2018-04-02T12:42:24.564Z,16.65
2018-04-02T12:44:50.833Z,16.69
2018-04-02T12:47:17.143Z,16.45
2018-04-02T12:49:43.433Z,17.43
2018-04-02T12:52:09.741Z,17.75
2018-04-02T12:54:36.039Z,15.34
2018-04-02T12:57:02.407Z,14.19
2018-04-02T12:59:28.644Z,15.42
2018-04-02T13:01:54.953Z,14.03
2018-04-02T13:04:21.205Z,14.98
2018-04-02T13:06:47.456Z,15.53
2018-04-02T13:09:13.761Z,15.70
2018-04-02T13:11:40.052Z,15.84
2018-04-02T13:14:06.398Z,14.32
2018-04-02T13:16:32.665Z,14.23
2018-04-02T13:18:58.973Z,13.86
2018-04-02T13:21:25.224Z,13.35
2018-04-02T13:23:51.594Z,12.66
2018-04-02T13:26:17.853Z,13.25
2018-04-02T13:28:44.125Z,13.03
2018-04-02T13:31:10.425Z,13.04
2018-04-02T13:33:36.786Z,12.20
2018-04-02T13:36:03.379Z,11.35
2018-04-02T13:38:29.633Z,11.84
2018-04-02T13:40:55.960Z,10.72
2018-04-02T13:43:22.232Z,10.77
2018-04-02T13:45:48.635Z,10.35
2018-04-02T13:48:14.885Z,10.98
2018-04-02T13:50:41.157Z,11.16
2018-04-02T13:53:07.496Z,10.25
2018-04-02T13:55:33.766Z,11.27
2018-04-02T13:58:00.047Z,11.97
2018-04-02T14:00:26.300Z,11.67
2018-04-02T14:02:52.576Z,11.73
2018-04-02T14:05:18.882Z,10.30
2018-04-02T14:07:45.182Z,11.69
2018-04-02T14:10:11.599Z,11.71
2018-04-02T14:12:37.880Z,11.67
2018-04-02T14:15:04.189Z,11.90
2018-04-02T14:17:30.524Z,11.77
2018-04-02T14:19:56.785Z,11.08
2018-04-02T14:22:23.017Z,11.71
2018-04-02T14:24:49.324Z,11.36
2018-04-02T14:27:15.554Z,11.46
2018-04-02T14:29:41.836Z,11.02
2018-04-02T14:32:08.135Z,11.31
2018-04-02T14:34:34.373Z,10.85
2018-04-02T14:37:00.643Z,10.94
2018-04-02T14:39:26.897Z,11.26
2018-04-02T14:41:53.182Z,11.08
2018-04-02T14:44:19.412Z,11.67
2018-04-02T14:46:45.716Z,12.26
2018-04-02T14:49:11.956Z,12.75
2018-04-02T14:51:38.208Z,13.52
2018-04-02T14:54:04.497Z,13.36
2018-04-02T14:56:30.766Z,13.06
2018-04-02T14:58:57.065Z,12.89
2018-04-02T15:01:23.322Z,13.01
2018-04-02T15:03:49.597Z,13.30
2018-04-02T15:06:15.835Z,13.09
2018-04-02T15:08:42.191Z,13.14
2018-04-02T15:11:08.438Z,13.70
2018-04-02T15:13:35.841Z,14.48
2018-04-02T15:16:02.133Z,14.42
2018-04-02T15:18:28.415Z,14.39
2018-04-02T15:20:54.672Z,15.00
2018-04-02T15:23:20.920Z,15.20
2018-04-02T15:25:47.220Z,14.81
2018-04-02T15:28:13.545Z,15.00
2018-04-02T15:30:39.828Z,15.34
2018-04-02T15:33:06.101Z,15.46
2018-04-02T15:35:32.437Z,15.51
2018-04-02T15:37:58.734Z,15.47
2018-04-02T15:40:24.999Z,16.00
2018-04-02T15:42:51.286Z,15.75
2018-04-02T15:45:17.640Z,16.02
2018-04-02T15:47:43.920Z,15.90
2018-04-02T15:50:10.205Z,16.11
2018-04-02T15:52:36.484Z,16.37
2018-04-02T15:55:02.792Z,16.91
2018-04-02T15:57:29.048Z,17.96
2018-04-02T15:59:55.322Z,18.66
2018-04-02T16:02:21.661Z,19.19
2018-04-02T16:04:47.951Z,19.64
2018-04-02T16:07:14.192Z,20.14
2018-04-02T16:09:40.457Z,20.87
2018-04-02T16:12:06.692Z,21.86
2018-04-02T16:14:32.929Z,22.54
2018-04-02T16:16:59.193Z,22.94
2018-04-02T16:19:25.585Z,23.84
2018-04-02T16:21:51.860Z,24.54
2018-04-02T16:24:18.153Z,25.30
2018-04-02T16:26:44.417Z,25.67
2018-04-02T16:29:10.872Z,25.84
2018-04-02T16:31:37.151Z,26.35
2018-04-02T16:34:03.431Z,26.34
2018-04-02T16:36:29.693Z,26.57
2018-04-02T16:38:55.949Z,27.17
2018-04-02T16:41:22.190Z,27.06
2018-04-02T16:43:48.490Z,27.38
2018-04-02T16:46:14.719Z,27.43
2018-04-02T16:48:40.993Z,27.80
2018-04-02T16:51:07.268Z,27.96
2018-04-02T16:53:34.080Z,28.43
2018-04-02T16:56:00.355Z,28.89
2018-04-02T16:58:26.621Z,29.18
2018-04-02T17:00:52.933Z,29.45
2018-04-02T17:03:19.220Z,29.47
2018-04-02T17:05:45.497Z,29.37
2018-04-02T17:08:11.784Z,29.72
2018-04-02T17:10:38.024Z,30.26
2018-04-02T17:13:04.308Z,30.33
2018-04-02T17:15:30.552Z,30.69
2018-04-02T17:17:56.812Z,30.75
2018-04-02T17:20:23.059Z,31.09
2018-04-02T17:22:49.312Z,31.56
2018-04-02T17:25:15.588Z,31.59
2018-04-02T17:27:42.050Z,32.05
2018-04-02T17:30:08.317Z,32.24
2018-04-02T17:32:34.584Z,32.50
2018-04-02T17:35:00.851Z,32.49
2018-04-02T17:37:27.112Z,32.95
2018-04-02T17:39:53.432Z,33.05
2018-04-02T17:42:19.673Z,33.22
2018-04-02T17:44:45.985Z,33.22
2018-04-02T17:47:12.229Z,33.31
2018-04-02T17:49:38.506Z,33.63
2018-04-02T17:52:04.785Z,33.85
2018-04-02T17:54:31.048Z,34.27
2018-04-02T17:56:57.353Z,34.39
2018-04-02T17:59:23.644Z,34.51
2018-04-02T18:01:49.913Z,34.55
2018-04-02T18:04:16.168Z,34.80
2018-04-02T18:06:42.446Z,35.11
2018-04-02T18:09:08.744Z,35.15
2018-04-02T18:11:35.016Z,35.59
2018-04-02T18:14:01.270Z,35.87
2018-04-02T18:16:27.633Z,35.97
2018-04-02T18:18:54.005Z,36.21
2018-04-02T18:21:20.253Z,36.12
2018-04-02T18:23:46.518Z,36.11
2018-04-02T18:26:12.781Z,36.28
2018-04-02T18:28:39.149Z,36.44
2018-04-02T18:31:05.384Z,36.53
2018-04-02T18:33:31.685Z,36.91
2018-04-02T18:35:58.012Z,36.63
2018-04-02T18:38:24.256Z,36.84
2018-04-02T18:40:50.526Z,36.90
2018-04-02T18:43:16.812Z,36.98
2018-04-02T18:45:43.081Z,37.21
2018-04-02T18:48:09.315Z,37.31
2018-04-02T18:50:35.601Z,37.42
2018-04-02T18:53:01.951Z,37.47
2018-04-02T18:55:28.188Z,37.44
2018-04-02T18:57:54.472Z,37.42
2018-04-02T19:00:20.717Z,37.65
2018-04-02T19:02:47.058Z,37.55
2018-04-02T19:05:13.283Z,38.02
2018-04-02T19:07:39.574Z,38.02
2018-04-02T19:10:05.943Z,37.89
2018-04-02T19:12:32.473Z,37.98
2018-04-02T19:14:59.057Z,37.93
2018-04-02T19:17:25.321Z,37.85
2018-04-02T19:19:51.732Z,38.14
2018-04-02T19:22:18.068Z,38.09
2018-04-02T19:24:44.318Z,38.05
2018-04-02T19:27:10.608Z,38.19
2018-04-02T19:29:37.386Z,38.38
2018-04-02T19:32:03.745Z,38.34
2018-04-02T19:34:30.146Z,38.17
2018-04-02T19:36:56.521Z,38.21
2018-04-02T19:39:22.773Z,38.19
2018-04-02T19:41:49.205Z,38.30
2018-04-02T19:44:16.331Z,38.31
2018-04-02T19:46:42.598Z,38.44
2018-04-02T19:49:08.929Z,38.52
2018-04-02T19:51:35.185Z,38.39
2018-04-02T19:54:01.444Z,38.41
2018-04-02T19:56:27.697Z,38.49
2018-04-02T19:58:54.064Z,38.42
2018-04-02T20:01:20.320Z,38.58
2018-04-02T20:03:46.614Z,38.69
2018-04-02T20:06:12.864Z,38.44
2018-04-02T20:08:39.105Z,38.66
2018-04-02T20:11:05.375Z,38.64
2018-04-02T20:13:31.679Z,38.45
2018-04-02T20:15:57.967Z,38.74
2018-04-02T20:18:24.301Z,38.78
2018-04-02T20:20:50.549Z,38.74
2018-04-02T20:23:16.820Z,38.71
2018-04-02T20:25:43.585Z,38.89
2018-04-02T20:28:09.889Z,38.99
2018-04-02T20:30:36.129Z,38.92
2018-04-02T20:33:02.586Z,38.92
2018-04-02T20:35:28.868Z,38.90
2018-04-02T20:37:55.106Z,39.00
2018-04-02T20:40:21.481Z,39.09
2018-04-02T20:42:47.760Z,39.25
2018-04-02T20:45:14.426Z,39.26
2018-04-02T20:47:40.676Z,39.13
2018-04-02T20:50:07.028Z,39.14
2018-04-02T20:52:33.445Z,39.17
2018-04-02T20:54:59.685Z,39.36
2018-04-02T20:57:26.333Z,39.44
2018-04-02T20:59:52.589Z,39.55
2018-04-02T21:02:18.872Z,39.54
2018-04-02T21:04:45.325Z,39.68
2018-04-02T21:07:11.605Z,39.76
2018-04-02T21:09:38.184Z,39.68
2018-04-02T21:12:04.494Z,39.61
2018-04-02T21:14:30.734Z,39.54
2018-04-02T21:16:57.170Z,39.58
2018-04-02T21:19:23.584Z,39.61
2018-04-02T21:21:50.055Z,39.69
2018-04-02T21:24:16.352Z,39.61
2018-04-02T21:26:42.596Z,39.90
2018-04-02T21:29:08.979Z,39.93
2018-04-02T21:31:35.235Z,40.08
2018-04-02T21:34:01.582Z,40.19
2018-04-02T21:36:27.873Z,40.26
2018-04-02T21:38:54.143Z,40.19
2018-04-02T21:41:20.688Z,40.19
2018-04-02T21:43:46.937Z,40.44
2018-04-02T21:46:13.475Z,40.56
2018-04-02T21:48:39.717Z,40.48
2018-04-02T21:51:06.020Z,40.72
2018-04-02T21:53:32.507Z,40.78
2018-04-02T21:55:58.744Z,40.76
2018-04-02T21:58:25.140Z,40.69
2018-04-02T22:00:51.461Z,40.62
2018-04-02T22:03:17.718Z,40.68
2018-04-02T22:05:44.273Z,40.70
2018-04-02T22:08:10.547Z,40.64
2018-04-02T22:10:36.921Z,40.34
2018-04-02T22:13:03.309Z,40.20
2018-04-02T22:15:29.607Z,40.11
2018-04-02T22:17:56.137Z,40.18
2018-04-02T22:20:22.781Z,40.45
2018-04-02T22:22:49.213Z,40.55
2018-04-02T22:25:15.508Z,40.46
2018-04-02T22:27:41.745Z,40.48
2018-04-02T22:30:08.279Z,40.40
2018-04-02T22:32:34.508Z,40.26
2018-04-02T22:35:00.862Z,40.30
2018-04-02T22:37:27.295Z,39.97
2018-04-02T22:39:53.598Z,39.98
2018-04-02T22:42:20.202Z,39.43
2018-04-02T22:44:46.459Z,38.56
2018-04-02T22:47:12.818Z,38.41
2018-04-02T22:49:39.152Z,38.52
2018-04-02T22:52:05.481Z,38.33
2018-04-02T22:54:31.990Z,38.46
2018-04-02T22:56:58.257Z,38.31
2018-04-02T22:59:24.654Z,38.48
2018-04-02T23:01:51.047Z,38.30
2018-04-02T23:04:17.317Z,38.32
2018-04-02T23:06:43.921Z,38.17
2018-04-02T23:09:10.276Z,38.04
2018-04-02T23:11:36.610Z,37.84
2018-04-02T23:14:03.029Z,37.72
2018-04-02T23:16:29.296Z,37.61
2018-04-02T23:18:55.809Z,37.49
2018-04-02T23:21:22.097Z,37.36
2018-04-02T23:23:48.432Z,37.28
2018-04-02T23:26:14.693Z,37.12
2018-04-02T23:28:40.936Z,37.28
2018-04-02T23:31:07.213Z,37.50
2018-04-02T23:33:33.468Z,37.59
2018-04-02T23:35:59.740Z,37.67
2018-04-02T23:38:26.012Z,37.63
2018-04-02T23:40:52.262Z,37.68
2018-04-02T23:43:18.528Z,37.71
2018-04-02T23:45:44.771Z,37.28
2018-04-02T23:48:11.028Z,37.22
2018-04-02T23:50:37.290Z,36.80
2018-04-02T23:53:03.569Z,36.74
2018-04-02T23:55:29.809Z,36.56
2018-04-02T23:57:56.084Z,36.43
